sensor_id;sensor_type;location;lat;lon;timestamp;P1;durP1;ratioP1;P2;durP2;ratioP2
15418;SDS011;7808;43.712;23.098;2022-08-27T00:02:21;3.47;;;3.10;;
15418;SDS011;7808;43.712;23.098;2022-08-27T00:04:48;4.07;;;2.83;;
15418;SDS011;7808;43.712;23.098;2022-08-27T00:07:15;2.93;;;2.73;;
15418;SDS011;7808;43.712;23.098;2022-08-27T00:09:42;5.80;;;3.50;;
15418;SDS011;7808;43.712;23.098;2022-08-27T00:12:11;2.87;;;2.40;;
15418;SDS011;7808;43.712;23.098;2022-08-27T00:14:38;2.73;;;2.60;;
15418;SDS011;7808;43.712;23.098;2022-08-27T00:17:05;3.20;;;2.90;;
15418;SDS011;7808;43.712;23.098;2022-08-27T00:19:33;3.00;;;2.80;;
15418;SDS011;7808;43.712;23.098;2022-08-27T00:22:01;4.93;;;3.07;;
15418;SDS011;7808;43.712;23.098;2022-08-27T00:24:28;3.27;;;2.77;;
15418;SDS011;7808;43.712;23.098;2022-08-27T00:26:55;4.67;;;3.37;;
15418;SDS011;7808;43.712;23.098;2022-08-27T00:29:23;2.87;;;2.73;;
15418;SDS011;7808;43.712;23.098;2022-08-27T00:31:51;3.73;;;2.63;;
15418;SDS011;7808;43.712;23.098;2022-08-27T00:34:18;4.80;;;2.50;;
15418;SDS011;7808;43.712;23.098;2022-08-27T00:36:46;4.80;;;3.07;;
15418;SDS011;7808;43.712;23.098;2022-08-27T00:39:13;3.33;;;2.80;;
15418;SDS011;7808;43.712;23.098;2022-08-27T00:41:40;3.77;;;2.97;;
15418;SDS011;7808;43.712;23.098;2022-08-27T00:44:08;4.80;;;2.83;;
15418;SDS011;7808;43.712;23.098;2022-08-27T00:46:38;2.87;;;2.73;;
15418;SDS011;7808;43.712;23.098;2022-08-27T00:49:08;4.13;;;2.93;;
15418;SDS011;7808;43.712;23.098;2022-08-27T00:51:38;5.20;;;2.60;;
15418;SDS011;7808;43.712;23.098;2022-08-27T00:54:06;3.40;;;3.10;;
15418;SDS011;7808;43.712;23.098;2022-08-27T00:56:36;2.73;;;2.63;;
15418;SDS011;7808;43.712;23.098;2022-08-27T00:59:08;3.07;;;2.87;;
15418;SDS011;7808;43.712;23.098;2022-08-27T01:01:36;2.80;;;2.70;;
15418;SDS011;7808;43.712;23.098;2022-08-27T01:04:24;3.27;;;3.07;;
15418;SDS011;7808;43.712;23.098;2022-08-27T01:06:51;5.27;;;3.17;;
15418;SDS011;7808;43.712;23.098;2022-08-27T01:09:18;2.90;;;2.80;;
15418;SDS011;7808;43.712;23.098;2022-08-27T01:11:46;3.10;;;2.80;;
15418;SDS011;7808;43.712;23.098;2022-08-27T01:14:14;2.80;;;2.60;;
15418;SDS011;7808;43.712;23.098;2022-08-27T01:16:46;3.67;;;2.90;;
15418;SDS011;7808;43.712;23.098;2022-08-27T01:19:17;2.90;;;2.63;;
15418;SDS011;7808;43.712;23.098;2022-08-27T01:21:49;3.03;;;2.83;;
15418;SDS011;7808;43.712;23.098;2022-08-27T01:24:27;2.70;;;2.60;;
15418;SDS011;7808;43.712;23.098;2022-08-27T01:26:56;3.10;;;2.90;;
15418;SDS011;7808;43.712;23.098;2022-08-27T01:29:24;3.83;;;2.60;;
15418;SDS011;7808;43.712;23.098;2022-08-27T01:31:54;3.37;;;3.07;;
15418;SDS011;7808;43.712;23.098;2022-08-27T01:34:24;3.40;;;2.97;;
15418;SDS011;7808;43.712;23.098;2022-08-27T01:36:51;3.00;;;2.80;;
15418;SDS011;7808;43.712;23.098;2022-08-27T01:39:18;3.40;;;3.00;;
15418;SDS011;7808;43.712;23.098;2022-08-27T01:41:46;2.70;;;2.50;;
15418;SDS011;7808;43.712;23.098;2022-08-27T01:44:13;2.90;;;2.63;;
15418;SDS011;7808;43.712;23.098;2022-08-27T01:46:40;2.73;;;2.53;;
15418;SDS011;7808;43.712;23.098;2022-08-27T01:49:08;2.77;;;2.57;;
15418;SDS011;7808;43.712;23.098;2022-08-27T01:51:35;6.30;;;3.17;;
15418;SDS011;7808;43.712;23.098;2022-08-27T01:54:02;3.20;;;3.00;;
15418;SDS011;7808;43.712;23.098;2022-08-27T01:56:29;7.03;;;3.10;;
15418;SDS011;7808;43.712;23.098;2022-08-27T01:58:57;2.60;;;2.50;;
15418;SDS011;7808;43.712;23.098;2022-08-27T02:01:24;2.93;;;2.70;;
15418;SDS011;7808;43.712;23.098;2022-08-27T02:03:51;2.50;;;2.30;;
15418;SDS011;7808;43.712;23.098;2022-08-27T02:06:18;4.30;;;2.57;;
15418;SDS011;7808;43.712;23.098;2022-08-27T02:08:45;2.50;;;2.30;;
15418;SDS011;7808;43.712;23.098;2022-08-27T02:11:12;2.87;;;2.67;;
15418;SDS011;7808;43.712;23.098;2022-08-27T02:13:39;11.40;;;3.20;;
15418;SDS011;7808;43.712;23.098;2022-08-27T02:16:07;2.67;;;2.40;;
15418;SDS011;7808;43.712;23.098;2022-08-27T02:18:34;5.07;;;2.93;;
15418;SDS011;7808;43.712;23.098;2022-08-27T02:21:02;2.90;;;2.70;;
15418;SDS011;7808;43.712;23.098;2022-08-27T02:23:30;2.70;;;2.50;;
15418;SDS011;7808;43.712;23.098;2022-08-27T02:25:56;3.50;;;2.50;;
15418;SDS011;7808;43.712;23.098;2022-08-27T02:28:23;3.20;;;2.43;;
15418;SDS011;7808;43.712;23.098;2022-08-27T02:30:50;2.53;;;2.43;;
15418;SDS011;7808;43.712;23.098;2022-08-27T02:33:19;2.87;;;2.67;;
15418;SDS011;7808;43.712;23.098;2022-08-27T02:35:45;2.27;;;2.17;;
15418;SDS011;7808;43.712;23.098;2022-08-27T02:38:12;3.03;;;2.80;;
15418;SDS011;7808;43.712;23.098;2022-08-27T02:40:39;3.07;;;2.80;;
15418;SDS011;7808;43.712;23.098;2022-08-27T02:43:06;6.57;;;2.93;;
15418;SDS011;7808;43.712;23.098;2022-08-27T02:45:33;3.27;;;2.67;;
15418;SDS011;7808;43.712;23.098;2022-08-27T02:48:02;2.90;;;2.70;;
15418;SDS011;7808;43.712;23.098;2022-08-27T02:50:30;3.40;;;2.87;;
15418;SDS011;7808;43.712;23.098;2022-08-27T02:52:58;3.07;;;2.80;;
15418;SDS011;7808;43.712;23.098;2022-08-27T02:55:26;2.53;;;2.30;;
15418;SDS011;7808;43.712;23.098;2022-08-27T02:57:53;2.77;;;2.60;;
15418;SDS011;7808;43.712;23.098;2022-08-27T03:00:21;2.73;;;2.63;;
15418;SDS011;7808;43.712;23.098;2022-08-27T03:02:50;3.60;;;2.53;;
15418;SDS011;7808;43.712;23.098;2022-08-27T03:05:17;2.70;;;2.50;;
15418;SDS011;7808;43.712;23.098;2022-08-27T03:07:46;4.10;;;2.40;;
15418;SDS011;7808;43.712;23.098;2022-08-27T03:10:14;2.80;;;2.70;;
15418;SDS011;7808;43.712;23.098;2022-08-27T03:12:42;3.23;;;2.93;;
15418;SDS011;7808;43.712;23.098;2022-08-27T03:15:11;3.37;;;2.77;;
15418;SDS011;7808;43.712;23.098;2022-08-27T03:17:40;2.50;;;2.30;;
15418;SDS011;7808;43.712;23.098;2022-08-27T03:20:25;2.70;;;2.60;;
15418;SDS011;7808;43.712;23.098;2022-08-27T03:22:54;2.40;;;2.30;;
15418;SDS011;7808;43.712;23.098;2022-08-27T03:25:21;2.60;;;2.40;;
15418;SDS011;7808;43.712;23.098;2022-08-27T03:27:48;3.10;;;2.40;;
15418;SDS011;7808;43.712;23.098;2022-08-27T03:30:16;3.10;;;2.57;;
15418;SDS011;7808;43.712;23.098;2022-08-27T03:32:47;2.53;;;2.33;;
15418;SDS011;7808;43.712;23.098;2022-08-27T03:35:14;2.47;;;2.27;;
15418;SDS011;7808;43.712;23.098;2022-08-27T03:37:42;3.23;;;2.93;;
15418;SDS011;7808;43.712;23.098;2022-08-27T03:40:10;3.60;;;2.87;;
15418;SDS011;7808;43.712;23.098;2022-08-27T03:42:38;2.60;;;2.40;;
15418;SDS011;7808;43.712;23.098;2022-08-27T03:45:06;2.40;;;2.30;;
15418;SDS011;7808;43.712;23.098;2022-08-27T03:47:34;2.87;;;2.63;;
15418;SDS011;7808;43.712;23.098;2022-08-27T03:50:02;3.77;;;3.10;;
15418;SDS011;7808;43.712;23.098;2022-08-27T03:52:31;5.60;;;2.80;;
15418;SDS011;7808;43.712;23.098;2022-08-27T03:54:59;4.73;;;2.87;;
15418;SDS011;7808;43.712;23.098;2022-08-27T03:57:30;3.30;;;2.67;;
15418;SDS011;7808;43.712;23.098;2022-08-27T03:59:57;7.40;;;2.50;;
15418;SDS011;7808;43.712;23.098;2022-08-27T04:02:25;2.97;;;2.77;;
15418;SDS011;7808;43.712;23.098;2022-08-27T04:04:52;3.77;;;2.80;;
15418;SDS011;7808;43.712;23.098;2022-08-27T04:07:21;3.40;;;2.60;;
15418;SDS011;7808;43.712;23.098;2022-08-27T04:09:48;4.00;;;2.60;;
15418;SDS011;7808;43.712;23.098;2022-08-27T04:12:15;2.93;;;2.60;;
15418;SDS011;7808;43.712;23.098;2022-08-27T04:14:43;3.30;;;2.47;;
15418;SDS011;7808;43.712;23.098;2022-08-27T04:17:10;3.27;;;3.07;;
15418;SDS011;7808;43.712;23.098;2022-08-27T04:19:37;2.93;;;2.73;;
15418;SDS011;7808;43.712;23.098;2022-08-27T04:22:04;2.70;;;2.60;;
15418;SDS011;7808;43.712;23.098;2022-08-27T04:24:33;8.37;;;3.20;;
15418;SDS011;7808;43.712;23.098;2022-08-27T04:27:01;4.30;;;3.00;;
15418;SDS011;7808;43.712;23.098;2022-08-27T04:29:29;3.40;;;3.20;;
15418;SDS011;7808;43.712;23.098;2022-08-27T04:31:58;2.60;;;2.40;;
15418;SDS011;7808;43.712;23.098;2022-08-27T04:34:25;3.50;;;3.00;;
15418;SDS011;7808;43.712;23.098;2022-08-27T04:36:53;7.37;;;5.63;;
15418;SDS011;7808;43.712;23.098;2022-08-27T04:39:21;4.27;;;3.97;;
15418;SDS011;7808;43.712;23.098;2022-08-27T04:41:49;3.10;;;2.90;;
15418;SDS011;7808;43.712;23.098;2022-08-27T04:44:17;2.77;;;2.67;;
15418;SDS011;7808;43.712;23.098;2022-08-27T04:46:44;4.93;;;2.80;;
15418;SDS011;7808;43.712;23.098;2022-08-27T04:49:13;2.23;;;2.10;;
15418;SDS011;7808;43.712;23.098;2022-08-27T04:51:41;3.33;;;2.60;;
15418;SDS011;7808;43.712;23.098;2022-08-27T04:54:08;2.50;;;2.40;;
15418;SDS011;7808;43.712;23.098;2022-08-27T04:56:36;2.20;;;2.10;;
15418;SDS011;7808;43.712;23.098;2022-08-27T04:59:05;2.30;;;2.20;;
15418;SDS011;7808;43.712;23.098;2022-08-27T05:01:34;2.63;;;2.33;;
15418;SDS011;7808;43.712;23.098;2022-08-27T05:04:02;3.33;;;2.20;;
15418;SDS011;7808;43.712;23.098;2022-08-27T05:06:31;2.50;;;2.33;;
15418;SDS011;7808;43.712;23.098;2022-08-27T05:09:00;2.17;;;2.07;;
15418;SDS011;7808;43.712;23.098;2022-08-27T05:11:28;2.50;;;2.30;;
15418;SDS011;7808;43.712;23.098;2022-08-27T05:14:00;2.70;;;2.50;;
15418;SDS011;7808;43.712;23.098;2022-08-27T05:16:27;2.67;;;2.47;;
15418;SDS011;7808;43.712;23.098;2022-08-27T05:34:25;4.47;;;2.28;;
15418;SDS011;7808;43.712;23.098;2022-08-27T05:36:52;3.80;;;2.95;;
15418;SDS011;7808;43.712;23.098;2022-08-27T05:39:19;3.97;;;2.27;;
15418;SDS011;7808;43.712;23.098;2022-08-27T05:41:46;3.17;;;2.50;;
15418;SDS011;7808;43.712;23.098;2022-08-27T05:44:13;2.72;;;2.53;;
15418;SDS011;7808;43.712;23.098;2022-08-27T05:46:41;3.13;;;2.60;;
15418;SDS011;7808;43.712;23.098;2022-08-27T05:49:09;2.80;;;2.55;;
15418;SDS011;7808;43.712;23.098;2022-08-27T05:51:42;2.60;;;2.40;;
15418;SDS011;7808;43.712;23.098;2022-08-27T05:54:11;2.53;;;2.35;;
15418;SDS011;7808;43.712;23.098;2022-08-27T05:56:43;3.10;;;2.90;;
15418;SDS011;7808;43.712;23.098;2022-08-27T05:59:10;3.17;;;2.95;;
15418;SDS011;7808;43.712;23.098;2022-08-27T06:01:55;2.97;;;2.78;;
15418;SDS011;7808;43.712;23.098;2022-08-27T06:04:23;2.72;;;2.53;;
15418;SDS011;7808;43.712;23.098;2022-08-27T06:06:52;16.92;;;3.17;;
15418;SDS011;7808;43.712;23.098;2022-08-27T06:09:20;2.58;;;2.38;;
15418;SDS011;7808;43.712;23.098;2022-08-27T13:40:23;4.07;;;2.70;;
15418;SDS011;7808;43.712;23.098;2022-08-27T13:42:54;3.35;;;3.15;;
15418;SDS011;7808;43.712;23.098;2022-08-27T13:45:23;2.97;;;2.60;;
15418;SDS011;7808;43.712;23.098;2022-08-27T13:47:51;3.05;;;2.85;;
15418;SDS011;7808;43.712;23.098;2022-08-27T13:50:20;4.93;;;3.15;;
15418;SDS011;7808;43.712;23.098;2022-08-27T13:52:49;4.03;;;2.97;;
15418;SDS011;7808;43.712;23.098;2022-08-27T13:55:38;4.03;;;3.72;;
15418;SDS011;7808;43.712;23.098;2022-08-27T13:58:11;2.78;;;2.67;;
15418;SDS011;7808;43.712;23.098;2022-08-27T14:00:39;3.30;;;2.58;;
15418;SDS011;7808;43.712;23.098;2022-08-27T14:03:21;2.80;;;2.60;;
15418;SDS011;7808;43.712;23.098;2022-08-27T14:05:54;3.90;;;2.90;;
15418;SDS011;7808;43.712;23.098;2022-08-27T14:08:22;2.85;;;2.65;;
15418;SDS011;7808;43.712;23.098;2022-08-27T14:10:58;3.50;;;2.40;;
15418;SDS011;7808;43.712;23.098;2022-08-27T14:13:27;3.08;;;2.72;;
15418;SDS011;7808;43.712;23.098;2022-08-27T14:16:10;2.65;;;2.45;;
15418;SDS011;7808;43.712;23.098;2022-08-27T14:18:48;4.20;;;2.90;;
15418;SDS011;7808;43.712;23.098;2022-08-27T14:21:17;3.92;;;2.92;;
15418;SDS011;7808;43.712;23.098;2022-08-27T14:23:44;3.72;;;3.42;;
15418;SDS011;7808;43.712;23.098;2022-08-27T14:26:12;5.00;;;2.88;;
15418;SDS011;7808;43.712;23.098;2022-08-27T14:28:39;2.72;;;2.63;;
15418;SDS011;7808;43.712;23.098;2022-08-27T14:31:06;2.70;;;2.60;;
15418;SDS011;7808;43.712;23.098;2022-08-27T14:33:33;2.63;;;2.42;;
15418;SDS011;7808;43.712;23.098;2022-08-27T14:36:00;3.10;;;2.90;;
15418;SDS011;7808;43.712;23.098;2022-08-27T14:38:27;2.70;;;2.60;;
15418;SDS011;7808;43.712;23.098;2022-08-27T14:40:58;2.78;;;2.67;;
15418;SDS011;7808;43.712;23.098;2022-08-27T14:43:26;2.95;;;2.35;;
15418;SDS011;7808;43.712;23.098;2022-08-27T14:45:54;2.75;;;2.65;;
15418;SDS011;7808;43.712;23.098;2022-08-27T14:48:22;2.55;;;2.45;;
15418;SDS011;7808;43.712;23.098;2022-08-27T14:50:52;3.50;;;3.17;;
15418;SDS011;7808;43.712;23.098;2022-08-27T14:53:19;7.32;;;3.60;;
15418;SDS011;7808;43.712;23.098;2022-08-27T14:55:45;5.22;;;3.47;;
15418;SDS011;7808;43.712;23.098;2022-08-27T14:58:12;5.30;;;3.92;;
15418;SDS011;7808;43.712;23.098;2022-08-27T15:00:40;2.50;;;2.42;;
15418;SDS011;7808;43.712;23.098;2022-08-27T15:03:08;2.92;;;2.33;;
15418;SDS011;7808;43.712;23.098;2022-08-27T15:05:35;4.82;;;3.03;;
15418;SDS011;7808;43.712;23.098;2022-08-27T15:08:03;2.97;;;2.72;;
15418;SDS011;7808;43.712;23.098;2022-08-27T15:10:30;3.00;;;2.88;;
15418;SDS011;7808;43.712;23.098;2022-08-27T15:12:57;5.78;;;2.58;;
15418;SDS011;7808;43.712;23.098;2022-08-27T15:15:24;2.80;;;2.60;;
15418;SDS011;7808;43.712;23.098;2022-08-27T15:17:52;4.55;;;2.60;;
15418;SDS011;7808;43.712;23.098;2022-08-27T15:20:19;2.80;;;2.60;;
15418;SDS011;7808;43.712;23.098;2022-08-27T15:22:46;8.63;;;2.90;;
15418;SDS011;7808;43.712;23.098;2022-08-27T15:25:16;3.45;;;2.63;;
15418;SDS011;7808;43.712;23.098;2022-08-27T15:27:44;2.40;;;2.30;;
15418;SDS011;7808;43.712;23.098;2022-08-27T15:30:12;2.65;;;2.47;;
15418;SDS011;7808;43.712;23.098;2022-08-27T15:32:42;2.67;;;2.47;;
15418;SDS011;7808;43.712;23.098;2022-08-27T15:35:12;5.03;;;2.92;;
15418;SDS011;7808;43.712;23.098;2022-08-27T15:37:42;2.72;;;2.40;;
15418;SDS011;7808;43.712;23.098;2022-08-27T15:40:09;4.10;;;2.60;;
15418;SDS011;7808;43.712;23.098;2022-08-27T15:42:38;2.95;;;2.75;;
15418;SDS011;7808;43.712;23.098;2022-08-27T15:45:06;2.45;;;2.35;;
15418;SDS011;7808;43.712;23.098;2022-08-27T15:47:35;2.50;;;2.40;;
15418;SDS011;7808;43.712;23.098;2022-08-27T15:50:03;3.05;;;2.70;;
15418;SDS011;7808;43.712;23.098;2022-08-27T15:52:32;2.75;;;2.55;;
15418;SDS011;7808;43.712;23.098;2022-08-27T15:54:59;5.15;;;2.63;;
15418;SDS011;7808;43.712;23.098;2022-08-27T15:57:26;2.78;;;2.58;;
15418;SDS011;7808;43.712;23.098;2022-08-27T15:59:53;2.88;;;2.67;;
15418;SDS011;7808;43.712;23.098;2022-08-27T16:02:20;2.40;;;2.30;;
15418;SDS011;7808;43.712;23.098;2022-08-27T16:04:49;2.70;;;2.50;;
15418;SDS011;7808;43.712;23.098;2022-08-27T16:07:16;2.50;;;2.40;;
15418;SDS011;7808;43.712;23.098;2022-08-27T16:09:46;2.80;;;2.60;;
15418;SDS011;7808;43.712;23.098;2022-08-27T16:12:12;6.40;;;3.15;;
15418;SDS011;7808;43.712;23.098;2022-08-27T16:14:40;2.60;;;2.40;;
15418;SDS011;7808;43.712;23.098;2022-08-27T16:17:07;4.50;;;2.60;;
15418;SDS011;7808;43.712;23.098;2022-08-27T16:19:34;2.97;;;2.75;;
15418;SDS011;7808;43.712;23.098;2022-08-27T16:22:02;2.60;;;2.50;;
15418;SDS011;7808;43.712;23.098;2022-08-27T16:24:31;3.22;;;2.53;;
15418;SDS011;7808;43.712;23.098;2022-08-27T16:26:59;2.83;;;2.63;;
15418;SDS011;7808;43.712;23.098;2022-08-27T16:29:26;2.60;;;2.47;;
15418;SDS011;7808;43.712;23.098;2022-08-27T16:31:53;7.18;;;3.25;;
15418;SDS011;7808;43.712;23.098;2022-08-27T16:34:20;4.15;;;3.75;;
15418;SDS011;7808;43.712;23.098;2022-08-27T16:36:51;7.35;;;4.07;;
15418;SDS011;7808;43.712;23.098;2022-08-27T16:39:18;3.15;;;2.92;;
15418;SDS011;7808;43.712;23.098;2022-08-27T16:41:45;3.42;;;3.00;;
15418;SDS011;7808;43.712;23.098;2022-08-27T16:44:14;3.47;;;2.92;;
15418;SDS011;7808;43.712;23.098;2022-08-27T16:46:41;4.25;;;3.00;;
15418;SDS011;7808;43.712;23.098;2022-08-27T16:49:08;3.13;;;2.60;;
15418;SDS011;7808;43.712;23.098;2022-08-27T16:51:52;3.67;;;3.00;;
15418;SDS011;7808;43.712;23.098;2022-08-27T16:54:19;6.65;;;3.13;;
15418;SDS011;7808;43.712;23.098;2022-08-27T16:56:46;5.38;;;3.45;;
15418;SDS011;7808;43.712;23.098;2022-08-27T16:59:15;4.40;;;3.60;;
15418;SDS011;7808;43.712;23.098;2022-08-27T17:01:42;9.32;;;4.00;;
15418;SDS011;7808;43.712;23.098;2022-08-27T17:04:12;4.82;;;3.85;;
15418;SDS011;7808;43.712;23.098;2022-08-27T17:06:39;7.47;;;3.78;;
15418;SDS011;7808;43.712;23.098;2022-08-27T17:09:06;6.90;;;3.75;;
15418;SDS011;7808;43.712;23.098;2022-08-27T17:11:34;4.20;;;3.80;;
15418;SDS011;7808;43.712;23.098;2022-08-27T17:14:04;9.80;;;5.47;;
15418;SDS011;7808;43.712;23.098;2022-08-27T17:16:33;10.00;;;5.75;;
15418;SDS011;7808;43.712;23.098;2022-08-27T17:19:01;12.20;;;5.90;;
15418;SDS011;7808;43.712;23.098;2022-08-27T17:21:30;7.45;;;5.85;;
15418;SDS011;7808;43.712;23.098;2022-08-27T17:23:58;8.15;;;7.35;;
15418;SDS011;7808;43.712;23.098;2022-08-27T17:26:27;9.15;;;7.30;;
15418;SDS011;7808;43.712;23.098;2022-08-27T17:28:54;9.85;;;7.40;;
15418;SDS011;7808;43.712;23.098;2022-08-27T17:31:23;8.30;;;6.07;;
15418;SDS011;7808;43.712;23.098;2022-08-27T17:33:55;7.55;;;4.00;;
15418;SDS011;7808;43.712;23.098;2022-08-27T17:36:23;4.70;;;3.97;;
15418;SDS011;7808;43.712;23.098;2022-08-27T17:38:50;5.47;;;4.20;;
15418;SDS011;7808;43.712;23.098;2022-08-27T17:41:20;9.73;;;4.18;;
15418;SDS011;7808;43.712;23.098;2022-08-27T17:43:50;7.05;;;4.18;;
15418;SDS011;7808;43.712;23.098;2022-08-27T17:46:18;4.18;;;3.90;;
15418;SDS011;7808;43.712;23.098;2022-08-27T17:48:45;4.28;;;3.88;;
15418;SDS011;7808;43.712;23.098;2022-08-27T17:51:13;5.45;;;4.30;;
15418;SDS011;7808;43.712;23.098;2022-08-27T17:53:43;7.43;;;4.07;;
15418;SDS011;7808;43.712;23.098;2022-08-27T17:56:12;6.72;;;4.68;;
15418;SDS011;7808;43.712;23.098;2022-08-27T17:58:39;4.80;;;4.30;;
15418;SDS011;7808;43.712;23.098;2022-08-27T18:01:06;5.07;;;3.30;;
15418;SDS011;7808;43.712;23.098;2022-08-27T18:03:34;3.38;;;3.17;;
15418;SDS011;7808;43.712;23.098;2022-08-27T18:06:01;6.32;;;3.30;;
15418;SDS011;7808;43.712;23.098;2022-08-27T18:08:30;3.55;;;3.00;;
15418;SDS011;7808;43.712;23.098;2022-08-27T18:10:57;3.95;;;3.55;;
15418;SDS011;7808;43.712;23.098;2022-08-27T18:13:24;5.20;;;4.25;;
15418;SDS011;7808;43.712;23.098;2022-08-27T18:15:51;5.88;;;5.28;;
15418;SDS011;7808;43.712;23.098;2022-08-27T18:18:18;7.80;;;3.70;;
15418;SDS011;7808;43.712;23.098;2022-08-27T18:20:44;3.30;;;3.10;;
15418;SDS011;7808;43.712;23.098;2022-08-27T18:23:11;5.35;;;3.50;;
15418;SDS011;7808;43.712;23.098;2022-08-27T18:25:40;3.67;;;3.33;;
15418;SDS011;7808;43.712;23.098;2022-08-27T18:28:09;6.28;;;3.50;;
15418;SDS011;7808;43.712;23.098;2022-08-27T18:30:37;3.75;;;3.45;;
15418;SDS011;7808;43.712;23.098;2022-08-27T18:33:07;3.67;;;3.47;;
15418;SDS011;7808;43.712;23.098;2022-08-27T18:35:34;3.80;;;3.30;;
15418;SDS011;7808;43.712;23.098;2022-08-27T18:38:03;3.10;;;2.90;;
15418;SDS011;7808;43.712;23.098;2022-08-27T18:40:34;3.92;;;3.63;;
15418;SDS011;7808;43.712;23.098;2022-08-27T18:43:05;3.08;;;2.90;;
15418;SDS011;7808;43.712;23.098;2022-08-27T18:45:31;7.57;;;3.35;;
15418;SDS011;7808;43.712;23.098;2022-08-27T18:48:02;4.25;;;3.92;;
15418;SDS011;7808;43.712;23.098;2022-08-27T18:50:42;4.65;;;4.25;;
15418;SDS011;7808;43.712;23.098;2022-08-27T18:53:11;6.95;;;4.10;;
15418;SDS011;7808;43.712;23.098;2022-08-27T18:55:40;7.60;;;4.15;;
15418;SDS011;7808;43.712;23.098;2022-08-27T18:58:08;6.18;;;4.35;;
15418;SDS011;7808;43.712;23.098;2022-08-27T19:00:36;6.53;;;4.50;;
15418;SDS011;7808;43.712;23.098;2022-08-27T19:03:05;4.72;;;4.18;;
15418;SDS011;7808;43.712;23.098;2022-08-27T19:05:32;6.50;;;4.60;;
15418;SDS011;7808;43.712;23.098;2022-08-27T19:07:59;5.40;;;4.55;;
15418;SDS011;7808;43.712;23.098;2022-08-27T19:10:26;4.65;;;4.25;;
15418;SDS011;7808;43.712;23.098;2022-08-27T19:12:53;5.15;;;3.97;;
15418;SDS011;7808;43.712;23.098;2022-08-27T19:15:21;3.53;;;3.28;;
15418;SDS011;7808;43.712;23.098;2022-08-27T19:17:49;4.03;;;3.70;;
15418;SDS011;7808;43.712;23.098;2022-08-27T19:20:18;5.50;;;3.40;;
15418;SDS011;7808;43.712;23.098;2022-08-27T19:22:46;3.85;;;3.60;;
15418;SDS011;7808;43.712;23.098;2022-08-27T19:25:13;3.60;;;3.30;;
15418;SDS011;7808;43.712;23.098;2022-08-27T19:27:41;3.75;;;3.45;;
15418;SDS011;7808;43.712;23.098;2022-08-27T19:30:09;3.63;;;3.33;;
15418;SDS011;7808;43.712;23.098;2022-08-27T19:32:39;4.47;;;3.75;;
15418;SDS011;7808;43.712;23.098;2022-08-27T19:35:07;5.18;;;3.55;;
15418;SDS011;7808;43.712;23.098;2022-08-27T19:37:35;4.30;;;3.75;;
15418;SDS011;7808;43.712;23.098;2022-08-27T19:40:07;3.83;;;3.63;;
15418;SDS011;7808;43.712;23.098;2022-08-27T19:42:35;6.47;;;3.35;;
15418;SDS011;7808;43.712;23.098;2022-08-27T19:45:03;4.00;;;3.70;;
15418;SDS011;7808;43.712;23.098;2022-08-27T19:47:30;5.43;;;3.80;;
15418;SDS011;7808;43.712;23.098;2022-08-27T19:49:58;3.47;;;3.28;;
15418;SDS011;7808;43.712;23.098;2022-08-27T19:52:25;5.68;;;3.90;;
15418;SDS011;7808;43.712;23.098;2022-08-27T19:54:52;6.80;;;4.10;;
15418;SDS011;7808;43.712;23.098;2022-08-27T19:57:19;4.32;;;4.00;;
15418;SDS011;7808;43.712;23.098;2022-08-27T19:59:46;4.95;;;3.50;;
15418;SDS011;7808;43.712;23.098;2022-08-27T20:02:13;4.28;;;3.88;;
15418;SDS011;7808;43.712;23.098;2022-08-27T20:04:40;4.75;;;3.58;;
15418;SDS011;7808;43.712;23.098;2022-08-27T20:07:08;4.75;;;4.18;;
15418;SDS011;7808;43.712;23.098;2022-08-27T20:09:35;3.83;;;3.60;;
15418;SDS011;7808;43.712;23.098;2022-08-27T20:12:02;5.88;;;3.42;;
15418;SDS011;7808;43.712;23.098;2022-08-27T20:14:29;3.80;;;3.42;;
15418;SDS011;7808;43.712;23.098;2022-08-27T20:16:56;8.35;;;3.55;;
15418;SDS011;7808;43.712;23.098;2022-08-27T20:19:23;3.40;;;3.20;;
15418;SDS011;7808;43.712;23.098;2022-08-27T20:21:50;7.15;;;3.78;;
15418;SDS011;7808;43.712;23.098;2022-08-27T20:24:18;4.05;;;3.40;;
15418;SDS011;7808;43.712;23.098;2022-08-27T20:26:45;5.95;;;3.88;;
15418;SDS011;7808;43.712;23.098;2022-08-27T20:29:12;8.45;;;3.75;;
15418;SDS011;7808;43.712;23.098;2022-08-27T20:31:39;3.83;;;3.45;;
15418;SDS011;7808;43.712;23.098;2022-08-27T20:34:06;4.13;;;3.53;;
15418;SDS011;7808;43.712;23.098;2022-08-27T20:36:33;3.97;;;3.67;;
15418;SDS011;7808;43.712;23.098;2022-08-27T20:39:00;3.75;;;3.55;;
15418;SDS011;7808;43.712;23.098;2022-08-27T20:41:29;3.67;;;3.20;;
15418;SDS011;7808;43.712;23.098;2022-08-27T20:43:56;6.78;;;3.70;;
15418;SDS011;7808;43.712;23.098;2022-08-27T20:46:24;3.47;;;3.28;;
15418;SDS011;7808;43.712;23.098;2022-08-27T20:48:54;3.20;;;2.97;;
15418;SDS011;7808;43.712;23.098;2022-08-27T20:51:21;3.65;;;3.28;;
15418;SDS011;7808;43.712;23.098;2022-08-27T20:53:49;3.85;;;3.50;;
15418;SDS011;7808;43.712;23.098;2022-08-27T20:56:17;3.33;;;3.08;;
15418;SDS011;7808;43.712;23.098;2022-08-27T20:58:46;5.57;;;3.28;;
15418;SDS011;7808;43.712;23.098;2022-08-27T21:01:30;4.45;;;3.75;;
15418;SDS011;7808;43.712;23.098;2022-08-27T21:03:57;5.50;;;3.72;;
15418;SDS011;7808;43.712;23.098;2022-08-27T21:06:24;4.30;;;3.95;;
15418;SDS011;7808;43.712;23.098;2022-08-27T21:08:51;3.22;;;3.10;;
15418;SDS011;7808;43.712;23.098;2022-08-27T21:11:18;3.72;;;3.53;;
15418;SDS011;7808;43.712;23.098;2022-08-27T21:13:46;3.60;;;3.40;;
15418;SDS011;7808;43.712;23.098;2022-08-27T21:16:13;4.93;;;3.65;;
15418;SDS011;7808;43.712;23.098;2022-08-27T21:18:40;3.67;;;3.40;;
15418;SDS011;7808;43.712;23.098;2022-08-27T21:21:07;4.30;;;3.30;;
15418;SDS011;7808;43.712;23.098;2022-08-27T21:23:35;6.53;;;3.55;;
15418;SDS011;7808;43.712;23.098;2022-08-27T21:26:04;3.63;;;3.30;;
15418;SDS011;7808;43.712;23.098;2022-08-27T21:28:35;3.70;;;3.40;;
15418;SDS011;7808;43.712;23.098;2022-08-27T21:31:04;3.80;;;3.58;;
15418;SDS011;7808;43.712;23.098;2022-08-27T21:33:31;3.67;;;3.40;;
15418;SDS011;7808;43.712;23.098;2022-08-27T21:35:59;6.45;;;3.13;;
15418;SDS011;7808;43.712;23.098;2022-08-27T21:38:26;6.00;;;3.20;;
15418;SDS011;7808;43.712;23.098;2022-08-27T21:40:53;3.63;;;3.30;;
15418;SDS011;7808;43.712;23.098;2022-08-27T21:43:20;4.57;;;3.42;;
15418;SDS011;7808;43.712;23.098;2022-08-27T21:45:51;3.60;;;3.33;;
15418;SDS011;7808;43.712;23.098;2022-08-27T21:48:20;3.58;;;3.30;;
15418;SDS011;7808;43.712;23.098;2022-08-27T21:50:47;3.70;;;3.40;;
15418;SDS011;7808;43.712;23.098;2022-08-27T21:53:14;5.15;;;3.70;;
15418;SDS011;7808;43.712;23.098;2022-08-27T21:55:42;4.13;;;3.58;;
15418;SDS011;7808;43.712;23.098;2022-08-27T21:58:09;6.93;;;3.30;;
15418;SDS011;7808;43.712;23.098;2022-08-27T22:00:38;3.50;;;3.30;;
15418;SDS011;7808;43.712;23.098;2022-08-27T22:03:08;3.40;;;3.15;;
15418;SDS011;7808;43.712;23.098;2022-08-27T22:05:39;4.03;;;3.22;;
15418;SDS011;7808;43.712;23.098;2022-08-27T22:08:07;3.28;;;3.05;;
15418;SDS011;7808;43.712;23.098;2022-08-27T22:10:34;3.92;;;3.42;;
15418;SDS011;7808;43.712;23.098;2022-08-27T22:13:01;3.75;;;3.45;;
15418;SDS011;7808;43.712;23.098;2022-08-27T22:15:29;3.55;;;3.25;;
15418;SDS011;7808;43.712;23.098;2022-08-27T22:17:56;3.20;;;3.00;;
15418;SDS011;7808;43.712;23.098;2022-08-27T22:20:24;4.05;;;3.67;;
15418;SDS011;7808;43.712;23.098;2022-08-27T22:22:54;4.00;;;3.60;;
15418;SDS011;7808;43.712;23.098;2022-08-27T22:25:23;3.30;;;3.10;;
15418;SDS011;7808;43.712;23.098;2022-08-27T22:27:50;3.78;;;3.40;;
15418;SDS011;7808;43.712;23.098;2022-08-27T22:30:17;3.50;;;3.22;;
15418;SDS011;7808;43.712;23.098;2022-08-27T22:32:44;3.83;;;3.53;;
15418;SDS011;7808;43.712;23.098;2022-08-27T22:35:12;3.40;;;3.10;;
15418;SDS011;7808;43.712;23.098;2022-08-27T22:37:41;3.53;;;3.20;;
15418;SDS011;7808;43.712;23.098;2022-08-27T22:40:10;3.10;;;2.95;;